createdAt,value
2022-12-24T00:01:03.872Z,10.37
2022-12-24T00:03:30.910Z,10.42
2022-12-24T00:05:57.720Z,10.32
2022-12-24T00:08:24.876Z,10.34
2022-12-24T00:10:53.277Z,10.35
2022-12-24T00:13:20.248Z,10.39
2022-12-24T00:15:47.068Z,10.43
2022-12-24T00:18:13.927Z,10.37
2022-12-24T00:20:40.789Z,10.24
2022-12-24T00:23:08.001Z,10.34
2022-12-24T00:25:34.776Z,10.25
2022-12-24T00:28:01.530Z,10.22
2022-12-24T00:30:28.226Z,10.17
2022-12-24T00:32:55.195Z,10.25
2022-12-24T00:35:22.132Z,10.28
2022-12-24T00:37:49.648Z,10.25
2022-12-24T00:40:17.593Z,10.20
2022-12-24T00:42:44.625Z,10.18
2022-12-24T00:45:12.649Z,10.09
2022-12-24T00:47:39.745Z,10.03
2022-12-24T00:50:07.226Z,9.99
2022-12-24T00:52:34.260Z,10.08
2022-12-24T00:55:01.033Z,10.18
2022-12-24T00:57:27.885Z,9.99
2022-12-24T00:59:54.525Z,9.93
2022-12-24T01:02:21.541Z,9.94
2022-12-24T01:05:06.794Z,9.96
2022-12-24T01:07:33.573Z,9.83
2022-12-24T01:10:00.468Z,9.78
2022-12-24T01:12:27.480Z,9.87
2022-12-24T01:14:54.246Z,9.86
2022-12-24T01:17:20.986Z,9.82
2022-12-24T01:19:47.797Z,9.79
2022-12-24T01:22:14.593Z,9.78
2022-12-24T01:24:42.222Z,9.88
2022-12-24T01:27:09.323Z,9.88
2022-12-24T01:29:36.224Z,9.80
2022-12-24T01:32:03.347Z,9.79
2022-12-24T01:34:30.116Z,9.71
2022-12-24T01:36:56.950Z,9.82
2022-12-24T01:39:23.688Z,9.81
2022-12-24T01:42:09.119Z,9.81
2022-12-24T01:44:41.819Z,9.83
2022-12-24T01:47:13.187Z,9.81
2022-12-24T01:49:43.127Z,9.90
2022-12-24T01:52:14.779Z,9.78
2022-12-24T01:55:10.075Z,9.68
2022-12-24T01:57:53.352Z,9.68
2022-12-24T02:00:20.621Z,9.54
2022-12-24T02:02:49.734Z,9.65
2022-12-24T02:05:31.141Z,9.60
2022-12-24T02:08:00.791Z,9.62
2022-12-24T02:10:28.018Z,9.71
2022-12-24T02:12:54.995Z,9.74
2022-12-24T02:15:22.103Z,9.76
2022-12-24T02:18:19.800Z,9.78
2022-12-24T02:21:31.232Z,9.74
2022-12-24T02:24:21.900Z,9.80
2022-12-24T02:27:30.750Z,9.75
2022-12-24T02:30:12.551Z,9.82
2022-12-24T02:32:51.239Z,9.85
2022-12-24T02:35:30.820Z,9.77
2022-12-24T02:38:25.032Z,9.80
2022-12-24T02:41:19.828Z,9.79
2022-12-24T02:43:48.828Z,9.74
2022-12-24T02:46:21.074Z,9.73
2022-12-24T02:48:49.801Z,9.77
2022-12-24T02:51:17.033Z,9.76
2022-12-24T02:53:43.763Z,9.68
2022-12-24T02:56:24.996Z,9.73
2022-12-24T02:58:54.393Z,9.85
2022-12-24T03:01:43.370Z,9.88
2022-12-24T03:04:19.609Z,9.82
2022-12-24T03:07:15.480Z,9.85
2022-12-24T03:09:55.950Z,9.97
2022-12-24T03:12:35.815Z,9.86
2022-12-24T03:15:08.099Z,9.90
2022-12-24T03:17:37.807Z,9.89
2022-12-24T03:20:08.641Z,9.89
2022-12-24T03:22:35.910Z,9.85
2022-12-24T03:25:03.792Z,9.92
2022-12-24T03:27:32.925Z,10.02
2022-12-24T03:29:59.998Z,9.94
2022-12-24T03:32:32.079Z,10.12
2022-12-24T03:34:59.112Z,10.10
2022-12-24T03:37:27.371Z,10.14
2022-12-24T03:39:54.082Z,10.10
2022-12-24T03:42:20.826Z,10.04
2022-12-24T03:44:47.524Z,10.03
2022-12-24T03:47:14.197Z,10.05
2022-12-24T03:49:41.067Z,10.00
2022-12-24T03:52:07.787Z,10.02
2022-12-24T03:54:34.502Z,10.04
2022-12-24T03:57:01.233Z,10.00
2022-12-24T03:59:27.951Z,9.94
2022-12-24T04:01:54.922Z,9.90
2022-12-24T04:04:21.778Z,9.94
2022-12-24T04:06:48.531Z,9.91
2022-12-24T04:09:15.864Z,9.90
2022-12-24T04:11:42.528Z,9.90
2022-12-24T04:14:09.191Z,9.93
2022-12-24T04:16:35.940Z,10.01
2022-12-24T04:19:02.725Z,10.02
2022-12-24T04:21:29.393Z,10.05
2022-12-24T04:23:56.109Z,9.99
2022-12-24T04:26:22.884Z,10.08
2022-12-24T04:28:49.773Z,10.06
2022-12-24T04:31:17.973Z,10.10
2022-12-24T04:33:45.226Z,10.01
2022-12-24T04:36:19.842Z,9.94
2022-12-24T04:38:48.032Z,9.85
2022-12-24T04:41:23.834Z,9.85
2022-12-24T04:43:52.295Z,9.79
2022-12-24T04:46:25.570Z,9.79
2022-12-24T04:48:53.745Z,9.79
2022-12-24T04:51:21.443Z,9.84
2022-12-24T04:53:48.396Z,9.71
2022-12-24T04:56:18.779Z,9.70
2022-12-24T04:58:45.657Z,9.60
2022-12-24T05:01:15.261Z,9.63
2022-12-24T05:03:42.042Z,9.54
2022-12-24T05:06:12.515Z,9.48
2022-12-24T05:08:39.409Z,9.49
2022-12-24T05:11:07.312Z,9.67
2022-12-24T05:13:40.790Z,9.73
2022-12-24T05:16:12.902Z,9.69
2022-12-24T05:18:39.777Z,9.69
2022-12-24T05:21:15.430Z,9.58
2022-12-24T05:24:00.986Z,9.61
2022-12-24T05:26:35.080Z,9.64
2022-12-24T05:29:03.585Z,9.70
2022-12-24T05:31:31.921Z,9.77
2022-12-24T05:33:58.574Z,9.73
2022-12-24T05:36:25.404Z,9.68
2022-12-24T05:38:52.552Z,9.71
2022-12-24T05:41:19.652Z,9.73
2022-12-24T05:43:46.688Z,9.75
2022-12-24T05:46:16.946Z,9.74
2022-12-24T05:48:43.695Z,9.65
2022-12-24T05:51:12.999Z,9.60
2022-12-24T05:53:40.666Z,9.56
2022-12-24T05:56:10.989Z,9.52
2022-12-24T05:58:38.544Z,9.50
2022-12-24T06:01:06.559Z,9.43
2022-12-24T06:03:34.442Z,9.42
2022-12-24T06:06:06.475Z,9.42
2022-12-24T06:08:34.636Z,9.41
2022-12-24T06:11:04.252Z,9.36
2022-12-24T06:13:31.654Z,9.32
2022-12-24T06:16:00.015Z,9.31
2022-12-24T06:18:26.803Z,9.33
2022-12-24T06:20:55.085Z,9.37
2022-12-24T06:23:22.978Z,9.32
2022-12-24T06:25:50.650Z,9.29
2022-12-24T06:28:18.492Z,9.30
2022-12-24T06:30:49.673Z,9.26
2022-12-24T06:33:17.852Z,9.28
2022-12-24T06:35:45.920Z,9.24
2022-12-24T06:38:12.980Z,9.25
2022-12-24T06:40:40.270Z,9.26
2022-12-24T06:43:06.988Z,9.28
2022-12-24T06:45:33.868Z,9.27
2022-12-24T06:48:01.201Z,9.30
2022-12-24T06:50:28.187Z,9.31
2022-12-24T06:52:54.892Z,9.28
2022-12-24T06:55:21.593Z,9.29
2022-12-24T06:57:48.364Z,9.32
2022-12-24T07:00:15.659Z,9.31
2022-12-24T07:02:43.864Z,9.24
2022-12-24T07:05:12.470Z,9.20
2022-12-24T07:07:40.979Z,9.25
2022-12-24T07:10:10.979Z,9.28
2022-12-24T07:12:37.955Z,9.26
2022-12-24T07:15:05.216Z,9.30
2022-12-24T07:17:31.908Z,9.25
2022-12-24T07:19:58.765Z,9.29
2022-12-24T07:22:25.426Z,9.29
2022-12-24T07:24:52.127Z,9.33
2022-12-24T07:27:19.878Z,9.28
2022-12-24T07:29:46.745Z,9.31
2022-12-24T07:32:13.423Z,9.27
2022-12-24T07:34:40.171Z,9.35
2022-12-24T07:37:07.762Z,9.32
2022-12-24T07:39:34.539Z,9.38
2022-12-24T07:42:01.310Z,9.32
2022-12-24T07:44:28.160Z,9.38
2022-12-24T07:46:54.935Z,9.41
2022-12-24T07:49:21.600Z,9.43
2022-12-24T07:51:48.371Z,9.37
2022-12-24T07:54:15.125Z,9.40
2022-12-24T07:56:42.769Z,9.43
2022-12-24T07:59:12.967Z,9.43
2022-12-24T08:01:40.059Z,9.47
2022-12-24T08:04:07.401Z,9.49
2022-12-24T08:06:34.162Z,9.47
2022-12-24T08:09:00.910Z,9.50
2022-12-24T08:11:27.933Z,9.47
2022-12-24T08:13:54.754Z,9.49
2022-12-24T08:16:21.635Z,9.51
2022-12-24T08:18:48.817Z,9.56
2022-12-24T08:21:15.849Z,9.66
2022-12-24T08:23:42.634Z,9.75
2022-12-24T08:26:10.462Z,9.79
2022-12-24T08:28:37.919Z,9.84
2022-12-24T08:31:05.274Z,9.87
2022-12-24T08:33:32.329Z,9.87
2022-12-24T08:36:01.553Z,9.85
2022-12-24T08:38:28.540Z,9.90
2022-12-24T08:40:55.624Z,9.91
2022-12-24T08:43:23.119Z,9.86
2022-12-24T08:45:50.319Z,9.94
2022-12-24T08:48:18.058Z,10.20
2022-12-24T08:50:45.012Z,10.22
2022-12-24T08:53:13.667Z,10.15
2022-12-24T08:55:40.372Z,10.27
2022-12-24T08:58:07.167Z,10.41
2022-12-24T09:00:34.003Z,10.47
2022-12-24T09:03:00.999Z,10.51
2022-12-24T09:05:27.897Z,10.56
2022-12-24T09:07:54.864Z,10.63
2022-12-24T09:10:21.982Z,10.65
2022-12-24T09:12:49.215Z,10.85
2022-12-24T09:15:15.910Z,10.69
2022-12-24T09:17:43.002Z,11.08
2022-12-24T09:20:11.348Z,10.82
2022-12-24T09:22:39.842Z,11.08
2022-12-24T09:25:07.160Z,10.96
2022-12-24T09:27:34.262Z,11.09
2022-12-24T09:30:01.024Z,11.24
2022-12-24T09:32:27.887Z,11.18
2022-12-24T09:34:54.604Z,11.39
2022-12-24T09:37:21.340Z,11.54
2022-12-24T09:39:47.998Z,11.46
2022-12-24T09:42:20.379Z,11.49
2022-12-24T09:44:54.160Z,11.38
2022-12-24T09:47:39.729Z,11.48
2022-12-24T09:50:34.864Z,11.59
2022-12-24T09:53:06.194Z,11.56
2022-12-24T09:55:44.178Z,11.59
2022-12-24T09:58:20.675Z,11.38
2022-12-24T10:00:50.311Z,11.52
2022-12-24T10:03:18.234Z,11.55
2022-12-24T10:05:57.232Z,11.51
2022-12-24T10:08:29.745Z,11.25
2022-12-24T10:11:17.195Z,11.19
2022-12-24T10:14:13.177Z,11.20
2022-12-24T10:16:58.606Z,11.43
2022-12-24T10:19:46.400Z,11.27
2022-12-24T10:22:31.191Z,11.23
2022-12-24T10:25:37.917Z,11.24
2022-12-24T10:28:14.584Z,11.19
2022-12-24T10:30:41.959Z,11.25
2022-12-24T10:33:22.737Z,11.47
2022-12-24T10:35:54.140Z,11.66
2022-12-24T10:38:20.931Z,11.72
2022-12-24T10:40:51.756Z,11.59
2022-12-24T10:43:24.453Z,11.69
2022-12-24T10:45:57.380Z,11.66
2022-12-24T10:48:29.496Z,11.89
2022-12-24T10:51:16.143Z,11.85
2022-12-24T10:53:53.026Z,12.07
2022-12-24T10:56:21.493Z,12.05
2022-12-24T10:58:54.131Z,12.13
2022-12-24T11:01:44.414Z,12.08
2022-12-24T11:04:23.181Z,12.24
2022-12-24T11:06:57.339Z,12.09
2022-12-24T11:09:43.543Z,12.13
2022-12-24T11:12:21.665Z,12.04
2022-12-24T11:14:58.760Z,11.81
2022-12-24T11:17:25.800Z,11.92
2022-12-24T11:19:52.572Z,12.11
2022-12-24T11:22:25.958Z,12.15
2022-12-24T11:25:08.644Z,12.24
2022-12-24T11:27:35.312Z,12.14
2022-12-24T11:30:20.870Z,12.06
2022-12-24T11:32:50.834Z,12.05
2022-12-24T11:35:21.811Z,12.12
2022-12-24T11:38:01.357Z,12.06
2022-12-24T11:40:37.193Z,11.89
2022-12-24T11:43:11.103Z,12.01
2022-12-24T11:45:57.608Z,12.05
2022-12-24T11:48:33.016Z,11.94
2022-12-24T11:51:02.135Z,11.99
2022-12-24T11:53:38.717Z,11.98
2022-12-24T11:56:14.311Z,12.13
2022-12-24T11:58:53.910Z,12.13
2022-12-24T12:01:51.741Z,12.36
2022-12-24T12:04:21.886Z,12.38
2022-12-24T12:06:59.338Z,12.42
2022-12-24T12:09:28.540Z,12.67
2022-12-24T12:12:17.465Z,12.70
2022-12-24T12:15:19.070Z,12.67
2022-12-24T12:17:57.021Z,12.76
2022-12-24T12:20:32.965Z,12.79
2022-12-24T12:23:24.711Z,12.54
2022-12-24T12:25:55.947Z,12.62
2022-12-24T12:28:28.835Z,12.63
2022-12-24T12:31:17.060Z,12.47
2022-12-24T12:33:51.370Z,12.74
2022-12-24T12:36:23.391Z,12.59
2022-12-24T12:38:51.309Z,12.59
2022-12-24T12:41:31.495Z,12.65
2022-12-24T12:44:29.185Z,12.42
2022-12-24T12:47:12.220Z,12.43
2022-12-24T12:49:54.231Z,12.44
2022-12-24T12:52:43.914Z,12.36
2022-12-24T12:55:38.280Z,12.45
2022-12-24T12:58:30.373Z,12.50
2022-12-24T13:01:13.686Z,12.49
2022-12-24T13:04:09.556Z,12.46
2022-12-24T13:07:00.759Z,12.31
2022-12-24T13:09:42.539Z,12.19
2022-12-24T13:12:25.118Z,12.32
2022-12-24T13:15:06.322Z,12.12
2022-12-24T13:17:59.242Z,12.12
2022-12-24T13:20:33.002Z,12.15
2022-12-24T13:23:02.643Z,12.09
2022-12-24T13:25:42.653Z,11.91
2022-12-24T13:28:22.557Z,12.06
2022-12-24T13:31:14.047Z,12.07
2022-12-24T13:33:40.939Z,12.08
2022-12-24T13:36:09.145Z,12.02
2022-12-24T13:38:44.441Z,12.02
2022-12-24T13:41:40.245Z,11.83
2022-12-24T13:44:07.764Z,11.92
2022-12-24T13:46:59.820Z,11.81
2022-12-24T13:49:48.607Z,11.83
2022-12-24T13:52:19.430Z,11.88
2022-12-24T13:55:08.702Z,11.81
2022-12-24T13:57:41.811Z,11.85
2022-12-24T14:00:27.719Z,11.76
2022-12-24T14:03:04.097Z,11.71
2022-12-24T14:05:46.554Z,11.68
2022-12-24T14:08:25.887Z,11.71
2022-12-24T14:11:10.091Z,11.68
2022-12-24T14:13:42.708Z,11.64
2022-12-24T14:16:18.999Z,11.59
2022-12-24T14:18:57.617Z,11.57
2022-12-24T14:21:29.767Z,11.57
2022-12-24T14:24:00.047Z,11.60
2022-12-24T14:26:44.845Z,11.56
2022-12-24T14:29:37.682Z,11.64
2022-12-24T14:32:13.737Z,11.56
2022-12-24T14:34:40.443Z,11.59
2022-12-24T14:37:07.433Z,11.60
2022-12-24T14:39:35.927Z,11.54
2022-12-24T14:42:17.350Z,11.44
2022-12-24T14:45:22.279Z,11.46
2022-12-24T14:48:20.648Z,11.42
2022-12-24T14:51:05.633Z,11.37
2022-12-24T14:53:49.407Z,11.37
2022-12-24T14:56:19.226Z,11.37
2022-12-24T14:58:47.121Z,11.28
2022-12-24T15:01:29.018Z,11.22
2022-12-24T15:04:05.960Z,11.25
2022-12-24T15:06:37.024Z,11.20
2022-12-24T15:09:04.756Z,11.21
2022-12-24T15:11:31.975Z,11.24
2022-12-24T15:14:00.705Z,11.12
2022-12-24T15:16:32.309Z,11.11
2022-12-24T15:19:04.257Z,11.11
2022-12-24T15:21:37.773Z,11.05
2022-12-24T15:24:04.720Z,10.91
2022-12-24T15:26:36.289Z,10.90
2022-12-24T15:29:17.204Z,10.86
2022-12-24T15:31:44.013Z,10.74
2022-12-24T15:34:26.369Z,10.84
2022-12-24T15:36:53.372Z,10.82
2022-12-24T15:39:20.257Z,10.82
2022-12-24T15:42:08.667Z,10.84
2022-12-24T15:44:37.623Z,10.86
2022-12-24T15:47:08.798Z,10.82
2022-12-24T15:49:36.919Z,10.85
2022-12-24T15:52:12.679Z,10.81
2022-12-24T15:54:53.676Z,10.73
2022-12-24T15:57:32.153Z,10.66
2022-12-24T16:00:01.034Z,10.66
2022-12-24T16:02:35.400Z,10.64
2022-12-24T16:05:37.423Z,10.66
2022-12-24T16:08:07.251Z,10.63
2022-12-24T16:10:42.774Z,10.69
2022-12-24T16:13:20.410Z,10.64
2022-12-24T16:15:52.371Z,10.57
2022-12-24T16:18:24.462Z,10.51
2022-12-24T16:20:52.728Z,10.44
2022-12-24T16:23:23.578Z,10.39
2022-12-24T16:25:50.547Z,10.39
2022-12-24T16:28:22.164Z,10.37
2022-12-24T16:30:50.196Z,10.36
2022-12-24T16:33:19.464Z,10.32
2022-12-24T16:35:47.070Z,10.24
2022-12-24T16:38:14.083Z,10.27
2022-12-24T16:40:41.863Z,10.28
2022-12-24T16:43:28.560Z,10.27
2022-12-24T16:46:02.504Z,10.27
2022-12-24T16:48:30.099Z,10.31
2022-12-24T16:50:57.165Z,10.32
2022-12-24T16:53:23.970Z,10.29
2022-12-24T16:55:51.621Z,10.22
2022-12-24T16:58:19.472Z,10.22
2022-12-24T17:00:46.833Z,10.15
2022-12-24T17:03:14.029Z,10.06
2022-12-24T17:05:42.829Z,10.05
2022-12-24T17:08:09.960Z,10.03
2022-12-24T17:10:37.485Z,9.96
2022-12-24T17:13:04.818Z,9.81
2022-12-24T17:15:31.975Z,9.90
2022-12-24T17:17:58.764Z,9.81
2022-12-24T17:20:26.084Z,9.76
2022-12-24T17:22:52.921Z,9.81
2022-12-24T17:25:19.766Z,9.73
2022-12-24T17:27:46.468Z,9.71
2022-12-24T17:30:13.375Z,9.67
2022-12-24T17:32:40.318Z,9.70
2022-12-24T17:35:07.812Z,9.54
2022-12-24T17:37:34.712Z,9.52
2022-12-24T17:40:01.722Z,9.58
2022-12-24T17:42:28.464Z,9.49
2022-12-24T17:44:55.236Z,9.30
2022-12-24T17:47:22.347Z,9.27
2022-12-24T17:49:49.087Z,9.21
2022-12-24T17:52:16.079Z,9.23
2022-12-24T17:54:42.821Z,9.22
2022-12-24T17:57:09.610Z,9.19
2022-12-24T17:59:36.368Z,9.22
2022-12-24T18:02:03.373Z,9.12
2022-12-24T18:04:30.341Z,9.12
2022-12-24T18:07:02.128Z,9.18
2022-12-24T18:09:30.250Z,9.19
2022-12-24T18:11:56.884Z,9.12
2022-12-24T18:14:23.790Z,9.16
2022-12-24T18:16:50.821Z,9.09
2022-12-24T18:19:17.900Z,9.09
2022-12-24T18:21:44.774Z,9.09
2022-12-24T18:24:13.221Z,9.03
2022-12-24T18:26:40.404Z,9.06
2022-12-24T18:29:08.920Z,9.14
2022-12-24T18:31:36.277Z,9.02
2022-12-24T18:34:05.235Z,8.89
2022-12-24T18:36:32.412Z,8.88
2022-12-24T18:38:59.327Z,8.83
2022-12-24T18:41:28.767Z,8.81
2022-12-24T18:43:56.451Z,8.64
2022-12-24T18:46:26.177Z,8.77
2022-12-24T18:48:55.203Z,8.77
2022-12-24T18:51:24.409Z,8.61
2022-12-24T18:53:51.843Z,8.55
2022-12-24T18:56:22.237Z,8.56
2022-12-24T18:58:52.000Z,8.42
2022-12-24T19:01:21.915Z,8.36
2022-12-24T19:03:49.487Z,8.43
2022-12-24T19:06:17.843Z,8.39
2022-12-24T19:09:01.464Z,8.37
2022-12-24T19:11:32.300Z,8.24
2022-12-24T19:14:00.252Z,8.31
2022-12-24T19:16:28.978Z,8.29
2022-12-24T19:18:56.157Z,8.28
2022-12-24T19:21:22.956Z,8.32
2022-12-24T19:23:49.977Z,8.32
2022-12-24T19:26:18.580Z,8.32
2022-12-24T19:28:46.061Z,8.21
2022-12-24T19:31:16.461Z,8.39
2022-12-24T19:33:45.323Z,8.29
2022-12-24T19:36:17.422Z,8.27
2022-12-24T19:38:44.610Z,8.17
2022-12-24T19:41:13.609Z,8.19
2022-12-24T19:43:42.441Z,8.17
2022-12-24T19:46:10.912Z,8.22
2022-12-24T19:48:38.720Z,8.26
2022-12-24T19:51:09.084Z,8.31
2022-12-24T19:53:36.464Z,8.27
2022-12-24T19:56:04.376Z,8.24
2022-12-24T19:58:32.816Z,8.39
2022-12-24T20:01:12.682Z,8.30
2022-12-24T20:03:42.761Z,8.21
2022-12-24T20:06:09.658Z,8.24
2022-12-24T20:08:37.699Z,8.17
2022-12-24T20:11:06.912Z,8.31
2022-12-24T20:13:34.635Z,8.37
2022-12-24T20:16:13.015Z,8.31
2022-12-24T20:18:40.025Z,8.37
2022-12-24T20:21:09.528Z,8.29
2022-12-24T20:23:40.739Z,8.36
2022-12-24T20:26:10.706Z,8.39
2022-12-24T20:28:38.108Z,8.28
2022-12-24T20:31:22.385Z,8.19
2022-12-24T20:33:49.243Z,8.10
2022-12-24T20:36:19.032Z,8.21
2022-12-24T20:38:47.002Z,8.29
2022-12-24T20:41:15.805Z,8.23
2022-12-24T20:43:48.346Z,8.19
2022-12-24T20:46:16.619Z,8.14
2022-12-24T20:48:43.580Z,8.13
2022-12-24T20:51:20.975Z,8.10
2022-12-24T20:53:51.542Z,8.09
2022-12-24T20:56:18.845Z,8.11
2022-12-24T20:58:46.269Z,8.06
2022-12-24T21:01:16.934Z,8.04
2022-12-24T21:03:43.887Z,8.11
2022-12-24T21:06:10.705Z,8.08
2022-12-24T21:08:38.850Z,8.06
2022-12-24T21:11:24.572Z,8.07
2022-12-24T21:13:51.432Z,8.10
2022-12-24T21:16:18.270Z,8.11
2022-12-24T21:18:44.936Z,8.08
2022-12-24T21:21:11.692Z,8.22
2022-12-24T21:23:38.395Z,8.16
2022-12-24T21:26:05.882Z,8.18
2022-12-24T21:28:33.509Z,8.26
2022-12-24T21:31:00.516Z,8.27
2022-12-24T21:33:32.008Z,8.33
2022-12-24T21:36:01.683Z,8.39
2022-12-24T21:38:28.715Z,8.46
2022-12-24T21:41:04.416Z,8.66
2022-12-24T21:43:32.765Z,8.69
2022-12-24T21:45:59.520Z,8.72
2022-12-24T21:48:45.635Z,8.71
2022-12-24T21:51:12.434Z,8.73
2022-12-24T21:53:57.823Z,8.79
2022-12-24T21:56:24.548Z,8.66
2022-12-24T21:58:51.737Z,8.76
2022-12-24T22:01:19.159Z,8.81
2022-12-24T22:03:49.644Z,8.83
2022-12-24T22:06:35.370Z,8.86
2022-12-24T22:09:21.711Z,8.95
2022-12-24T22:11:53.960Z,8.98
2022-12-24T22:14:21.617Z,8.97
2022-12-24T22:16:48.597Z,8.97
2022-12-24T22:19:15.337Z,8.99
2022-12-24T22:21:42.084Z,8.91
2022-12-24T22:24:09.411Z,8.88
2022-12-24T22:26:36.137Z,8.86
2022-12-24T22:29:06.442Z,8.85
2022-12-24T22:31:33.721Z,8.83
2022-12-24T22:34:00.530Z,8.78
2022-12-24T22:36:27.283Z,8.76
2022-12-24T22:38:54.029Z,8.73
2022-12-24T22:41:20.867Z,8.83
2022-12-24T22:43:49.778Z,8.81
2022-12-24T22:46:17.431Z,8.83
2022-12-24T22:48:46.187Z,8.79
2022-12-24T22:51:18.471Z,8.70
2022-12-24T22:53:45.799Z,8.66
2022-12-24T22:56:17.940Z,8.65
2022-12-24T22:58:45.018Z,8.63
2022-12-24T23:01:11.959Z,8.59
2022-12-24T23:03:38.874Z,8.56
2022-12-24T23:06:07.489Z,8.58
2022-12-24T23:08:37.350Z,8.64
2022-12-24T23:11:12.735Z,8.68
2022-12-24T23:14:01.068Z,8.60
2022-12-24T23:16:29.154Z,8.70
2022-12-24T23:18:57.339Z,8.70
2022-12-24T23:21:24.019Z,8.74
2022-12-24T23:23:50.841Z,8.81
2022-12-24T23:26:19.245Z,8.83
2022-12-24T23:28:46.610Z,8.92
2022-12-24T23:31:13.670Z,9.00
2022-12-24T23:33:40.491Z,9.07
2022-12-24T23:36:07.871Z,9.08
2022-12-24T23:38:35.366Z,9.08
2022-12-24T23:41:04.003Z,9.09
2022-12-24T23:43:30.691Z,9.10
2022-12-24T23:45:57.770Z,9.06
2022-12-24T23:48:25.624Z,9.10
2022-12-24T23:50:52.965Z,9.07
2022-12-24T23:53:19.992Z,9.12
2022-12-24T23:55:47.448Z,9.13
2022-12-24T23:58:15.699Z,9.12
